createdAt,value
2023-10-19T00:01:17.878Z,8.30
2023-10-19T00:03:47.179Z,8.40
2023-10-19T00:06:14.020Z,8.40
2023-10-19T00:08:43.803Z,8.30
2023-10-19T00:11:25.595Z,8.40
2023-10-19T00:13:59.132Z,8.40
2023-10-19T00:16:36.049Z,8.30
2023-10-19T00:19:05.132Z,8.30
2023-10-19T00:21:44.853Z,8.30
2023-10-19T00:24:11.663Z,8.30
2023-10-19T00:26:38.674Z,8.30
2023-10-19T00:29:19.505Z,8.30
2023-10-19T00:31:46.523Z,8.30
2023-10-19T00:34:14.739Z,8.30
2023-10-19T00:36:41.769Z,8.20
2023-10-19T00:39:16.841Z,8.20
2023-10-19T00:41:44.663Z,8.20
2023-10-19T00:44:17.751Z,8.20
2023-10-19T00:46:45.163Z,8.20
2023-10-19T00:49:15.897Z,8.20
2023-10-19T00:52:03.801Z,8.20
2023-10-19T00:54:34.828Z,8.30
2023-10-19T00:57:07.297Z,8.20
2023-10-19T00:59:43.945Z,8.30
2023-10-19T01:02:25.706Z,8.30
2023-10-19T01:05:06.341Z,8.30
2023-10-19T01:07:39.985Z,8.30
2023-10-19T01:10:24.751Z,8.20
2023-10-19T01:12:52.304Z,8.20
2023-10-19T01:15:29.370Z,8.20
2023-10-19T01:17:59.820Z,8.20
2023-10-19T01:20:31.022Z,8.20
2023-10-19T01:23:11.947Z,8.20
2023-10-19T01:25:42.584Z,8.20
2023-10-19T01:28:10.383Z,8.20
2023-10-19T01:30:41.744Z,8.20
2023-10-19T01:33:14.457Z,8.20
2023-10-19T01:35:59.890Z,8.20
2023-10-19T01:38:34.471Z,8.20
2023-10-19T01:41:02.339Z,8.20
2023-10-19T01:43:32.295Z,8.20
2023-10-19T01:46:30.845Z,8.20
2023-10-19T01:48:57.848Z,8.20
2023-10-19T01:51:29.566Z,8.10
2023-10-19T01:53:59.849Z,8.10
2023-10-19T01:56:26.635Z,8.10
2023-10-19T01:58:55.463Z,8.10
2023-10-19T02:01:30.442Z,8.10
2023-10-19T02:04:01.630Z,8.10
2023-10-19T02:06:37.239Z,8.20
2023-10-19T02:09:10.742Z,8.20
2023-10-19T02:11:43.116Z,8.20
2023-10-19T02:14:16.092Z,8.20
2023-10-19T02:16:52.272Z,8.20
2023-10-19T02:19:23.559Z,8.20
2023-10-19T02:21:54.021Z,8.20
2023-10-19T02:24:21.359Z,8.30
2023-10-19T02:26:52.356Z,8.30
2023-10-19T02:29:19.757Z,8.30
2023-10-19T02:31:48.904Z,8.30
2023-10-19T02:34:18.410Z,8.20
2023-10-19T02:36:50.851Z,8.20
2023-10-19T02:39:29.079Z,8.20
2023-10-19T02:41:55.874Z,8.20
2023-10-19T02:44:26.868Z,8.20
2023-10-19T02:47:00.159Z,8.20
2023-10-19T02:49:28.740Z,8.20
2023-10-19T02:51:55.579Z,8.20
2023-10-19T02:54:25.345Z,8.20
2023-10-19T02:57:00.924Z,8.10
2023-10-19T02:59:30.435Z,8.10
2023-10-19T03:02:02.697Z,8.10
2023-10-19T03:04:30.642Z,8.20
2023-10-19T03:06:58.089Z,8.20
2023-10-19T03:09:29.798Z,8.20
2023-10-19T03:12:00.928Z,8.20
2023-10-19T03:14:29.035Z,8.20
2023-10-19T03:16:56.642Z,8.30
2023-10-19T03:19:25.990Z,8.20
2023-10-19T03:21:56.673Z,8.20
2023-10-19T03:24:42.123Z,8.20
2023-10-19T03:27:25.106Z,8.20
2023-10-19T03:30:00.634Z,8.20
2023-10-19T03:32:33.891Z,8.20
2023-10-19T03:35:01.185Z,8.20
2023-10-19T03:37:36.417Z,8.20
2023-10-19T03:40:08.441Z,8.20
2023-10-19T03:42:41.216Z,8.10
2023-10-19T03:45:14.366Z,8.10
2023-10-19T03:47:44.665Z,8.10
2023-10-19T03:50:22.045Z,8.10
2023-10-19T03:52:48.939Z,8.10
2023-10-19T03:55:24.974Z,8.10
2023-10-19T03:57:55.324Z,8.10
2023-10-19T04:00:26.334Z,8.10
2023-10-19T04:02:56.680Z,8.10
2023-10-19T04:05:24.198Z,8.10
2023-10-19T04:07:56.554Z,8.20
2023-10-19T04:10:39.995Z,8.20
2023-10-19T04:13:14.111Z,8.10
2023-10-19T04:15:42.753Z,8.10
2023-10-19T04:18:10.147Z,8.10
2023-10-19T04:20:55.488Z,8.10
2023-10-19T04:23:28.125Z,8.20
2023-10-19T04:25:59.621Z,8.20
2023-10-19T04:28:31.816Z,8.20
2023-10-19T04:31:03.977Z,8.20
2023-10-19T04:33:31.909Z,8.20
2023-10-19T04:36:01.719Z,8.20
2023-10-19T04:38:31.641Z,8.20
2023-10-19T04:41:08.998Z,8.20
2023-10-19T04:43:38.634Z,8.20
2023-10-19T04:46:12.341Z,8.10
2023-10-19T04:48:41.020Z,8.10
2023-10-19T04:51:08.447Z,8.10
2023-10-19T04:53:38.180Z,8.10
2023-10-19T04:56:05.785Z,8.10
2023-10-19T04:58:32.651Z,8.10
2023-10-19T05:01:01.920Z,8.10
2023-10-19T05:03:29.093Z,8.10
2023-10-19T05:05:58.843Z,8.10
2023-10-19T05:08:30.274Z,8.20
2023-10-19T05:10:57.476Z,8.20
2023-10-19T05:13:27.896Z,8.10
2023-10-19T05:15:55.509Z,8.10
2023-10-19T05:18:23.042Z,8.10
2023-10-19T05:20:56.365Z,8.10
2023-10-19T05:23:26.196Z,8.00
2023-10-19T05:26:05.743Z,8.10
2023-10-19T05:28:49.086Z,8.10
2023-10-19T05:31:16.550Z,8.10
2023-10-19T05:33:45.931Z,8.00
2023-10-19T05:36:16.080Z,8.00
2023-10-19T05:38:42.888Z,8.10
2023-10-19T05:41:12.400Z,8.00
2023-10-19T05:43:42.344Z,8.00
2023-10-19T05:46:09.152Z,8.00
2023-10-19T05:48:35.939Z,8.00
2023-10-19T05:51:07.280Z,8.00
2023-10-19T05:53:34.103Z,8.00
2023-10-19T05:56:00.916Z,8.00
2023-10-19T05:58:27.763Z,8.10
2023-10-19T06:00:54.617Z,8.10
2023-10-19T06:03:21.415Z,8.10
2023-10-19T06:05:48.222Z,8.10
2023-10-19T06:08:59.732Z,7.90
2023-10-19T06:11:29.438Z,7.90
2023-10-19T06:13:56.210Z,7.90
2023-10-19T06:16:23.103Z,8.00
2023-10-19T06:18:50.064Z,7.90
2023-10-19T06:21:20.329Z,7.80
2023-10-19T06:23:47.094Z,7.80
2023-10-19T06:26:13.929Z,7.80
2023-10-19T06:28:42.055Z,7.80
2023-10-19T06:31:09.713Z,7.80
2023-10-19T06:33:42.605Z,7.70
2023-10-19T06:36:11.866Z,7.70
2023-10-19T06:38:38.663Z,7.70
2023-10-19T06:41:15.246Z,7.60
2023-10-19T06:43:44.433Z,7.60
2023-10-19T06:46:13.778Z,7.50
2023-10-19T06:48:40.835Z,7.50
2023-10-19T06:51:10.386Z,7.50
2023-10-19T06:53:37.252Z,7.60
2023-10-19T06:56:05.383Z,7.50
2023-10-19T06:58:35.437Z,7.50
2023-10-19T07:01:09.328Z,7.50
2023-10-19T07:03:36.385Z,7.60
2023-10-19T07:06:12.261Z,7.50
2023-10-19T07:08:43.427Z,7.60
2023-10-19T07:11:10.964Z,7.60
2023-10-19T07:13:37.856Z,7.50
2023-10-19T07:16:06.884Z,7.60
2023-10-19T07:18:37.956Z,7.50
2023-10-19T07:21:06.068Z,7.50
2023-10-19T07:23:33.031Z,7.60
2023-10-19T07:26:05.293Z,7.60
2023-10-19T07:28:32.642Z,7.70
2023-10-19T07:31:01.749Z,7.70
2023-10-19T07:33:31.808Z,7.80
2023-10-19T07:36:01.345Z,7.80
2023-10-19T07:38:34.412Z,7.90
2023-10-19T07:41:02.033Z,7.90
2023-10-19T07:43:29.350Z,7.90
2023-10-19T07:45:58.352Z,7.90
2023-10-19T07:48:27.498Z,7.90
2023-10-19T07:50:57.222Z,8.00
2023-10-19T07:53:25.751Z,7.90
2023-10-19T07:55:55.273Z,7.90
2023-10-19T07:58:24.884Z,8.00
2023-10-19T08:00:54.701Z,7.90
2023-10-19T08:03:23.650Z,8.00
2023-10-19T08:05:50.558Z,8.00
2023-10-19T08:08:19.963Z,8.10
2023-10-19T08:10:46.813Z,8.00
2023-10-19T08:13:13.952Z,8.10
2023-10-19T08:15:41.479Z,8.10
2023-10-19T08:18:08.393Z,8.10
2023-10-19T08:20:38.394Z,8.10
2023-10-19T08:23:07.773Z,8.10
2023-10-19T08:25:48.778Z,8.10
2023-10-19T08:28:21.967Z,8.10
2023-10-19T08:30:57.956Z,8.10
2023-10-19T08:33:27.730Z,8.10
2023-10-19T08:36:01.366Z,8.10
2023-10-19T08:38:34.158Z,8.20
2023-10-19T08:41:03.244Z,8.20
2023-10-19T08:43:30.282Z,8.20
2023-10-19T08:45:57.341Z,8.20
2023-10-19T08:48:24.609Z,8.20
2023-10-19T08:50:51.533Z,8.20
2023-10-19T08:53:20.607Z,8.20
2023-10-19T08:55:50.749Z,8.20
2023-10-19T08:58:18.688Z,8.30
2023-10-19T09:00:55.415Z,8.30
2023-10-19T09:03:25.757Z,8.30
2023-10-19T09:05:55.567Z,8.40
2023-10-19T09:08:23.905Z,8.30
2023-10-19T09:10:54.997Z,8.40
2023-10-19T09:13:24.063Z,8.40
2023-10-19T09:15:55.041Z,8.30
2023-10-19T09:18:23.292Z,8.30
2023-10-19T09:20:54.580Z,8.20
2023-10-19T09:23:22.318Z,8.30
2023-10-19T09:25:50.030Z,8.30
2023-10-19T09:28:19.239Z,8.30
2023-10-19T09:30:47.185Z,8.30
2023-10-19T09:33:22.772Z,8.40
2023-10-19T09:35:57.566Z,8.40
2023-10-19T09:38:25.968Z,8.30
2023-10-19T09:40:55.953Z,8.40
2023-10-19T09:43:34.359Z,8.40
2023-10-19T09:46:02.110Z,8.40
2023-10-19T09:48:36.675Z,8.40
2023-10-19T09:51:04.385Z,8.40
2023-10-19T09:53:32.505Z,8.50
2023-10-19T09:56:01.253Z,8.50
2023-10-19T09:58:41.757Z,8.50
2023-10-19T10:01:13.283Z,8.50
2023-10-19T10:03:48.169Z,8.50
2023-10-19T10:14:21.793Z,8.50
2023-10-19T10:17:03.638Z,8.50
2023-10-19T10:19:30.640Z,8.50
2023-10-19T10:22:13.326Z,8.40
2023-10-19T10:24:41.910Z,8.50
2023-10-19T10:27:17.842Z,8.50
2023-10-19T10:29:59.951Z,8.40
2023-10-19T10:32:45.889Z,8.40
2023-10-19T10:35:32.580Z,8.50
2023-10-19T10:38:02.391Z,8.50
2023-10-19T10:40:29.555Z,8.40
2023-10-19T10:43:06.175Z,8.40
2023-10-19T10:45:33.013Z,8.40
2023-10-19T10:48:02.176Z,8.40
2023-10-19T10:50:32.175Z,8.30
2023-10-19T10:53:01.485Z,8.30
2023-10-19T10:55:30.747Z,8.40
2023-10-19T10:57:58.541Z,8.40
2023-10-19T11:00:27.345Z,8.40
2023-10-19T11:03:01.777Z,8.30
2023-10-19T11:05:28.924Z,8.40
2023-10-19T11:08:15.804Z,8.40
2023-10-19T11:10:47.615Z,8.40
2023-10-19T11:13:18.421Z,8.40
2023-10-19T11:15:52.335Z,8.30
2023-10-19T11:18:40.402Z,8.30
2023-10-19T11:21:10.642Z,8.30
2023-10-19T11:23:43.250Z,8.30
2023-10-19T11:26:11.646Z,8.30
2023-10-19T11:28:55.627Z,8.30
2023-10-19T11:31:23.396Z,8.20
2023-10-19T11:33:50.709Z,8.30
2023-10-19T11:36:36.314Z,8.40
2023-10-19T11:39:37.114Z,8.40
2023-10-19T11:42:04.263Z,8.40
2023-10-19T11:44:31.493Z,8.40
2023-10-19T11:47:01.882Z,8.40
2023-10-19T11:49:28.824Z,8.40
2023-10-19T11:51:58.465Z,8.40
2023-10-19T11:54:26.502Z,8.50
2023-10-19T11:56:55.451Z,8.50
2023-10-19T11:59:22.278Z,8.40
2023-10-19T12:01:49.304Z,8.40
2023-10-19T12:04:16.193Z,8.40
2023-10-19T12:06:43.009Z,8.30
2023-10-19T12:09:18.551Z,8.30
2023-10-19T12:11:47.863Z,8.20
2023-10-19T12:14:16.165Z,8.20
2023-10-19T12:16:46.670Z,8.20
2023-10-19T12:19:32.193Z,8.20
2023-10-19T12:21:59.183Z,8.30
2023-10-19T12:24:30.143Z,8.30
2023-10-19T12:26:57.335Z,8.30
2023-10-19T12:29:26.685Z,8.30
2023-10-19T12:31:53.542Z,8.30
2023-10-19T12:34:23.957Z,8.30
2023-10-19T12:36:52.262Z,8.30
2023-10-19T12:39:44.007Z,8.40
2023-10-19T12:42:10.802Z,8.40
2023-10-19T12:44:40.961Z,8.40
2023-10-19T12:47:11.564Z,8.40
2023-10-19T12:49:39.024Z,8.40
2023-10-19T12:52:08.163Z,8.40
2023-10-19T12:54:38.531Z,8.40
2023-10-19T12:57:08.347Z,8.40
2023-10-19T12:59:38.586Z,8.40
2023-10-19T13:02:10.852Z,8.40
2023-10-19T13:04:37.963Z,8.40
2023-10-19T13:07:08.361Z,8.40
2023-10-19T13:09:37.294Z,8.40
2023-10-19T13:12:09.327Z,8.30
2023-10-19T13:14:36.192Z,8.30
2023-10-19T13:17:03.277Z,8.30
2023-10-19T13:19:32.798Z,8.40
2023-10-19T13:22:06.156Z,8.40
2023-10-19T13:24:41.988Z,8.40
2023-10-19T13:27:09.935Z,8.40
2023-10-19T13:29:39.696Z,8.40
2023-10-19T13:32:06.794Z,8.40
2023-10-19T13:34:34.108Z,8.40
2023-10-19T13:37:01.649Z,8.40
2023-10-19T13:39:32.761Z,8.40
2023-10-19T13:41:59.584Z,8.40
2023-10-19T13:44:29.726Z,8.40
2023-10-19T13:47:37.397Z,8.40
2023-10-19T13:50:04.532Z,8.30
2023-10-19T13:52:31.378Z,8.30
2023-10-19T13:54:58.555Z,8.30
2023-10-19T13:57:25.386Z,8.30
2023-10-19T13:59:52.199Z,8.30
2023-10-19T14:02:23.504Z,8.40
2023-10-19T14:04:52.748Z,8.30
2023-10-19T14:07:25.971Z,8.40
2023-10-19T14:09:53.667Z,8.30
2023-10-19T14:12:24.889Z,8.30
2023-10-19T14:14:53.817Z,8.20
2023-10-19T14:17:23.023Z,8.30
2023-10-19T14:19:49.936Z,8.30
2023-10-19T14:22:20.264Z,8.30
2023-10-19T14:24:47.045Z,8.30
2023-10-19T14:27:16.208Z,8.30
2023-10-19T14:29:45.318Z,8.30
2023-10-19T14:32:14.585Z,8.30
2023-10-19T14:34:41.675Z,8.30
2023-10-19T14:37:09.376Z,8.30
2023-10-19T14:39:36.228Z,8.30
2023-10-19T14:42:05.992Z,8.30
2023-10-19T14:44:35.122Z,8.20
2023-10-19T14:47:05.459Z,8.20
2023-10-19T14:49:32.491Z,8.20
2023-10-19T14:51:59.469Z,8.30
2023-10-19T14:54:26.246Z,8.20
2023-10-19T14:56:53.017Z,8.20
2023-10-19T14:59:19.772Z,8.20
2023-10-19T15:01:46.663Z,8.20
2023-10-19T15:04:16.996Z,8.20
2023-10-19T15:06:43.833Z,8.20
2023-10-19T15:09:15.931Z,8.20
2023-10-19T15:11:44.170Z,8.20
2023-10-19T15:14:12.846Z,8.30
2023-10-19T15:16:40.037Z,8.30
2023-10-19T15:19:12.591Z,8.30
2023-10-19T15:21:43.250Z,8.40
2023-10-19T15:24:17.431Z,8.40
2023-10-19T15:26:46.741Z,8.30
2023-10-19T15:29:14.121Z,8.30
2023-10-19T15:31:41.063Z,8.30
2023-10-19T15:34:14.300Z,8.20
2023-10-19T15:36:41.352Z,8.20
2023-10-19T15:39:11.881Z,8.10
2023-10-19T15:41:43.524Z,8.20
2023-10-19T15:44:10.433Z,8.20
2023-10-19T15:46:45.652Z,8.20
2023-10-19T15:49:17.700Z,8.20
2023-10-19T15:51:47.278Z,8.20
2023-10-19T15:54:14.042Z,8.20
2023-10-19T15:56:40.805Z,8.20
2023-10-19T15:59:09.966Z,8.20
2023-10-19T16:01:36.831Z,8.10
2023-10-19T16:04:06.006Z,8.10
2023-10-19T16:06:35.874Z,8.20
2023-10-19T16:09:05.621Z,8.20
2023-10-19T16:11:34.852Z,8.20
2023-10-19T16:14:04.300Z,8.20
2023-10-19T16:16:31.284Z,8.20
2023-10-19T16:18:58.117Z,8.10
2023-10-19T16:21:26.559Z,8.10
2023-10-19T16:23:57.808Z,8.10
2023-10-19T16:26:26.807Z,8.10
2023-10-19T16:28:53.630Z,8.10
2023-10-19T16:31:20.581Z,8.20
2023-10-19T16:33:48.111Z,8.10
2023-10-19T16:36:16.999Z,8.10
2023-10-19T16:38:46.108Z,8.10
2023-10-19T16:41:15.246Z,8.20
2023-10-19T16:43:45.105Z,8.20
2023-10-19T16:46:13.779Z,8.20
2023-10-19T16:48:40.706Z,8.20
2023-10-19T16:51:07.629Z,8.20
2023-10-19T16:53:36.572Z,8.10
2023-10-19T16:56:08.309Z,8.10
2023-10-19T16:58:35.263Z,8.20
2023-10-19T17:01:05.674Z,8.20
2023-10-19T17:03:32.597Z,8.20
2023-10-19T17:06:12.584Z,8.20
2023-10-19T17:08:41.997Z,8.20
2023-10-19T17:11:09.553Z,8.20
2023-10-19T17:13:37.870Z,8.20
2023-10-19T17:16:06.920Z,8.20
2023-10-19T17:18:35.201Z,8.20
2023-10-19T17:21:04.407Z,8.30
2023-10-19T17:23:31.235Z,8.30
2023-10-19T17:25:58.643Z,8.30
2023-10-19T17:28:25.765Z,8.30
2023-10-19T17:30:55.850Z,8.30
2023-10-19T17:33:23.402Z,8.30
2023-10-19T17:35:50.564Z,8.40
2023-10-19T17:38:17.519Z,8.30
2023-10-19T17:40:44.401Z,8.30
2023-10-19T17:43:12.600Z,8.30
2023-10-19T17:45:39.627Z,8.30
2023-10-19T17:48:07.692Z,8.30
2023-10-19T17:50:34.619Z,8.20
2023-10-19T17:53:01.837Z,8.20
2023-10-19T17:55:28.785Z,8.20
2023-10-19T17:57:55.664Z,8.20
2023-10-19T18:00:22.558Z,8.20
2023-10-19T18:02:49.525Z,8.30
2023-10-19T18:05:18.569Z,8.20
2023-10-19T18:07:45.486Z,8.20
2023-10-19T18:10:17.581Z,8.30
2023-10-19T18:12:49.952Z,8.30
2023-10-19T18:15:21.341Z,8.30
2023-10-19T18:17:53.010Z,8.30
2023-10-19T18:20:19.957Z,8.30
2023-10-19T18:22:46.880Z,8.30
2023-10-19T18:25:18.151Z,8.30
2023-10-19T18:27:49.298Z,8.30
2023-10-19T18:30:18.205Z,8.30
2023-10-19T18:32:45.075Z,8.30
2023-10-19T18:35:12.002Z,8.30
2023-10-19T18:37:43.640Z,8.30
2023-10-19T18:40:10.601Z,8.30
2023-10-19T18:42:37.461Z,8.30
2023-10-19T18:45:10.257Z,8.30
2023-10-19T18:47:37.286Z,8.30
2023-10-19T18:50:19.181Z,8.30
2023-10-19T18:52:52.219Z,8.30
2023-10-19T18:55:23.722Z,8.30
2023-10-19T18:58:02.168Z,8.30
2023-10-19T19:00:29.626Z,8.30
2023-10-19T19:02:56.777Z,8.30
2023-10-19T19:05:23.715Z,8.30
2023-10-19T19:07:50.665Z,8.30
2023-10-19T19:10:18.140Z,8.30
2023-10-19T19:12:45.234Z,8.30
2023-10-19T19:15:12.713Z,8.30
2023-10-19T19:17:40.554Z,8.30
2023-10-19T19:20:12.859Z,8.30
2023-10-19T19:22:41.560Z,8.40
2023-10-19T19:25:10.157Z,8.40
2023-10-19T19:27:37.427Z,8.40
2023-10-19T19:30:11.451Z,8.30
2023-10-19T19:32:38.742Z,8.40
2023-10-19T19:35:06.308Z,8.30
2023-10-19T19:37:39.678Z,8.30
2023-10-19T19:40:13.418Z,8.30
2023-10-19T19:42:44.334Z,8.30
2023-10-19T19:45:12.991Z,8.30
2023-10-19T19:47:45.228Z,8.30
2023-10-19T19:50:14.615Z,8.30
2023-10-19T19:52:43.270Z,8.30
2023-10-19T19:55:14.911Z,8.30
2023-10-19T19:57:42.509Z,8.30
2023-10-19T20:00:36.214Z,8.20
2023-10-19T20:03:04.749Z,8.20
2023-10-19T20:05:34.583Z,8.30
2023-10-19T20:08:02.464Z,8.30
2023-10-19T20:10:39.603Z,8.20
2023-10-19T20:13:07.232Z,8.30
2023-10-19T20:15:34.928Z,8.20
2023-10-19T20:18:02.838Z,8.30
2023-10-19T20:20:30.285Z,8.30
2023-10-19T20:22:59.289Z,8.20
2023-10-19T20:25:29.834Z,8.20
2023-10-19T20:27:57.687Z,8.20
2023-10-19T20:30:25.631Z,8.20
2023-10-19T20:32:56.673Z,8.20
2023-10-19T20:35:27.655Z,8.20
2023-10-19T20:37:55.007Z,8.20
2023-10-19T20:40:26.192Z,8.20
2023-10-19T20:42:58.475Z,8.20
2023-10-19T20:45:28.058Z,8.20
2023-10-19T20:47:57.590Z,8.20
2023-10-19T20:50:25.385Z,8.20
2023-10-19T20:52:53.466Z,8.20
2023-10-19T20:55:20.325Z,8.20
2023-10-19T20:57:49.494Z,8.30
2023-10-19T21:00:16.710Z,8.30
2023-10-19T21:02:46.126Z,8.30
2023-10-19T21:05:15.843Z,8.30
2023-10-19T21:07:42.954Z,8.20
2023-10-19T21:10:12.758Z,8.30
2023-10-19T21:12:39.993Z,8.30
2023-10-19T21:15:13.774Z,8.30
2023-10-19T21:17:44.688Z,8.20
2023-10-19T21:20:16.087Z,8.20
2023-10-19T21:22:44.012Z,8.20
2023-10-19T21:25:12.208Z,8.30
2023-10-19T21:27:40.670Z,8.30
2023-10-19T21:30:10.753Z,8.40
2023-10-19T21:32:43.536Z,8.40
2023-10-19T21:35:11.160Z,8.30
2023-10-19T21:37:38.918Z,8.30
2023-10-19T21:40:06.432Z,8.40
2023-10-19T21:42:35.703Z,8.30
2023-10-19T21:45:02.744Z,8.30
2023-10-19T21:47:29.820Z,8.30
2023-10-19T21:49:56.874Z,8.20
2023-10-19T21:52:26.865Z,8.20
2023-10-19T21:54:55.049Z,8.10
2023-10-19T21:57:22.140Z,8.10
2023-10-19T21:59:51.372Z,8.10
2023-10-19T22:02:18.505Z,8.10
2023-10-19T22:04:45.967Z,8.10
2023-10-19T22:07:14.973Z,8.10
2023-10-19T22:09:42.567Z,8.10
2023-10-19T22:12:11.386Z,8.10
2023-10-19T22:14:38.398Z,8.10
2023-10-19T22:17:06.671Z,8.10
2023-10-19T22:19:35.843Z,8.10
2023-10-19T22:22:04.999Z,8.10
2023-10-19T22:24:34.859Z,8.10
2023-10-19T22:27:04.333Z,8.10
2023-10-19T22:29:33.949Z,8.00
2023-10-19T22:32:01.034Z,8.00
2023-10-19T22:34:28.129Z,8.00
2023-10-19T22:36:54.885Z,8.00
2023-10-19T22:39:24.149Z,8.00
2023-10-19T22:41:51.977Z,8.00
2023-10-19T22:44:18.831Z,8.10
2023-10-19T22:46:45.725Z,8.00
2023-10-19T22:49:12.806Z,8.10
2023-10-19T22:51:40.162Z,8.00
2023-10-19T22:54:07.667Z,8.10
2023-10-19T22:56:35.252Z,8.10
2023-10-19T22:59:02.322Z,8.10
2023-10-19T23:01:29.713Z,8.10
2023-10-19T23:03:58.689Z,8.10
2023-10-19T23:06:26.741Z,8.00
2023-10-19T23:08:55.481Z,8.00
2023-10-19T23:11:27.725Z,8.00
2023-10-19T23:13:58.503Z,8.00
2023-10-19T23:16:28.784Z,8.00
2023-10-19T23:18:56.178Z,8.00
2023-10-19T23:21:28.104Z,8.00
2023-10-19T23:23:55.228Z,8.00
2023-10-19T23:26:22.347Z,7.90
2023-10-19T23:28:54.603Z,8.00
2023-10-19T23:31:24.972Z,7.90
2023-10-19T23:33:51.865Z,7.90
2023-10-19T23:36:18.619Z,7.90
2023-10-19T23:38:47.846Z,7.90
2023-10-19T23:41:15.097Z,7.90
2023-10-19T23:43:41.955Z,7.90
2023-10-19T23:46:11.702Z,7.90
2023-10-19T23:48:44.244Z,7.90
2023-10-19T23:51:11.066Z,7.90
2023-10-19T23:53:38.063Z,7.90
2023-10-19T23:56:06.341Z,7.90
2023-10-19T23:58:35.376Z,7.90
